createdAt,value
2023-05-14T00:00:05.355Z,61.65
2023-05-14T00:00:38.968Z,60.95
2023-05-14T00:01:10.594Z,61.45
2023-05-14T00:01:42.242Z,61.08
2023-05-14T00:02:14.903Z,62.10
2023-05-14T00:02:46.658Z,60.97
2023-05-14T00:03:18.699Z,60.97
2023-05-14T00:03:51.443Z,61.05
2023-05-14T00:04:23.568Z,60.60
2023-05-14T00:04:55.311Z,60.83
2023-05-14T00:05:28.029Z,60.85
2023-05-14T00:05:59.620Z,61.13
2023-05-14T00:06:33.128Z,63.08
2023-05-14T00:07:05.892Z,61.53
2023-05-14T00:07:37.501Z,61.30
2023-05-14T00:08:09.210Z,61.08
2023-05-14T00:08:43.225Z,61.33
2023-05-14T00:09:14.915Z,61.45
2023-05-14T00:09:46.538Z,61.67
2023-05-14T00:10:20.708Z,60.72
2023-05-14T00:10:52.480Z,59.95
2023-05-14T00:11:24.168Z,62.08
2023-05-14T00:11:56.904Z,60.60
2023-05-14T00:12:29.981Z,61.00
2023-05-14T00:13:01.946Z,60.40
2023-05-14T00:13:34.625Z,61.50
2023-05-14T00:14:06.333Z,60.97
2023-05-14T00:14:37.919Z,60.35
2023-05-14T00:15:10.923Z,60.63
2023-05-14T00:15:42.605Z,60.95
2023-05-14T00:16:14.343Z,60.83
2023-05-14T00:16:46.920Z,61.10
2023-05-14T00:17:18.510Z,61.47
2023-05-14T00:17:50.533Z,60.90
2023-05-14T00:18:23.130Z,60.38
2023-05-14T00:18:54.823Z,60.15
2023-05-14T00:19:26.478Z,60.95
2023-05-14T00:19:59.486Z,60.95
2023-05-14T00:20:32.103Z,60.95
2023-05-14T00:21:03.768Z,61.17
2023-05-14T00:21:35.465Z,60.22
2023-05-14T00:22:08.086Z,61.20
2023-05-14T00:22:40.168Z,61.00
2023-05-14T00:23:11.804Z,61.67
2023-05-14T00:23:45.801Z,60.85
2023-05-14T00:24:17.456Z,60.90
2023-05-14T00:24:49.171Z,61.35
2023-05-14T00:25:20.806Z,61.05
2023-05-14T00:25:53.373Z,61.10
2023-05-14T00:26:25.008Z,60.92
2023-05-14T00:26:56.625Z,61.25
2023-05-14T00:27:29.217Z,61.53
2023-05-14T00:28:00.947Z,60.90
2023-05-14T00:28:32.611Z,60.63
2023-05-14T00:29:05.226Z,61.70
2023-05-14T00:29:36.862Z,61.17
2023-05-14T00:30:08.784Z,60.72
2023-05-14T00:30:41.497Z,60.42
2023-05-14T00:31:14.043Z,60.75
2023-05-14T00:31:45.955Z,61.08
2023-05-14T00:32:18.605Z,60.90
2023-05-14T00:32:50.270Z,60.67
2023-05-14T00:33:21.975Z,60.75
2023-05-14T00:33:53.776Z,60.85
2023-05-14T00:34:26.472Z,61.03
2023-05-14T00:34:58.175Z,60.53
2023-05-14T00:35:29.954Z,60.80
2023-05-14T00:36:03.193Z,60.30
2023-05-14T00:36:34.828Z,61.40
2023-05-14T00:37:06.452Z,60.75
2023-05-14T00:37:39.032Z,61.42
2023-05-14T00:38:16.720Z,61.45
2023-05-14T00:38:51.057Z,62.17
2023-05-14T00:39:22.697Z,60.88
2023-05-14T00:39:54.328Z,61.45
2023-05-14T00:40:27.713Z,60.42
2023-05-14T00:40:59.360Z,60.75
2023-05-14T00:41:30.983Z,61.15
2023-05-14T00:42:03.547Z,60.95
2023-05-14T00:42:35.273Z,61.70
2023-05-14T00:43:06.968Z,61.00
2023-05-14T00:43:39.623Z,61.50
2023-05-14T00:44:11.346Z,60.67
2023-05-14T00:44:42.969Z,61.80
2023-05-14T00:45:15.873Z,60.97
2023-05-14T00:45:47.721Z,60.97
2023-05-14T00:46:19.644Z,61.30
2023-05-14T00:46:53.386Z,61.03
2023-05-14T00:47:25.096Z,61.13
2023-05-14T00:47:56.779Z,61.00
2023-05-14T00:48:29.534Z,61.22
2023-05-14T00:49:01.178Z,60.08
2023-05-14T00:49:32.932Z,61.70
2023-05-14T00:50:06.501Z,60.80
2023-05-14T00:50:38.505Z,61.20
2023-05-14T00:51:11.736Z,61.10
2023-05-14T00:51:46.729Z,61.03
2023-05-14T00:52:19.822Z,61.60
2023-05-14T00:52:51.472Z,61.30
2023-05-14T00:53:23.064Z,61.60
2023-05-14T00:53:57.287Z,60.92
2023-05-14T00:54:29.661Z,61.63
2023-05-14T00:55:03.140Z,61.28
2023-05-14T00:55:35.789Z,60.50
2023-05-14T00:56:08.373Z,61.92
2023-05-14T00:56:40.092Z,61.22
2023-05-14T00:57:12.762Z,61.45
2023-05-14T00:57:44.624Z,61.38
2023-05-14T00:58:16.657Z,61.08
2023-05-14T00:58:49.270Z,61.50
2023-05-14T00:59:20.890Z,61.33
2023-05-14T00:59:52.880Z,61.27
2023-05-14T01:00:25.738Z,61.10
2023-05-14T01:00:57.620Z,61.00
2023-05-14T01:01:29.367Z,61.10
2023-05-14T01:02:02.216Z,62.05
2023-05-14T01:02:33.910Z,60.72
2023-05-14T01:03:07.579Z,60.65
2023-05-14T01:03:40.512Z,60.70
2023-05-14T01:04:12.654Z,61.40
2023-05-14T01:04:44.367Z,61.53
2023-05-14T01:05:16.010Z,61.25
2023-05-14T01:05:54.757Z,61.80
2023-05-14T01:06:29.057Z,61.05
2023-05-14T01:07:07.288Z,61.45
2023-05-14T01:07:44.780Z,62.53
2023-05-14T01:08:21.817Z,61.15
2023-05-14T01:08:58.599Z,61.30
2023-05-14T01:09:35.940Z,62.27
2023-05-14T01:10:09.385Z,63.33
2023-05-14T01:10:44.698Z,61.95
2023-05-14T01:11:21.330Z,62.03
2023-05-14T01:11:55.610Z,61.55
2023-05-14T01:12:29.923Z,62.35
2023-05-14T01:13:05.815Z,61.08
2023-05-14T01:13:44.218Z,61.55
2023-05-14T01:14:21.282Z,61.83
2023-05-14T01:14:55.492Z,61.47
2023-05-14T01:15:29.927Z,62.20
2023-05-14T01:16:03.661Z,61.17
2023-05-14T01:16:37.396Z,61.78
2023-05-14T01:17:11.999Z,62.00
2023-05-14T01:17:46.319Z,61.00
2023-05-14T01:18:18.870Z,61.53
2023-05-14T01:18:51.998Z,61.65
2023-05-14T01:19:27.595Z,61.53
2023-05-14T01:20:00.287Z,61.75
2023-05-14T01:20:32.053Z,61.35
2023-05-14T01:21:04.780Z,62.10
2023-05-14T01:21:40.391Z,61.03
2023-05-14T01:22:12.305Z,61.47
2023-05-14T01:22:44.892Z,61.47
2023-05-14T01:23:16.561Z,61.10
2023-05-14T01:23:48.436Z,61.42
2023-05-14T01:24:21.128Z,62.92
2023-05-14T01:24:52.785Z,62.13
2023-05-14T01:25:24.589Z,62.45
2023-05-14T01:25:57.267Z,62.28
2023-05-14T01:26:31.398Z,62.70
2023-05-14T01:27:07.158Z,61.88
2023-05-14T01:27:43.716Z,62.47
2023-05-14T01:28:17.873Z,62.10
2023-05-14T01:28:51.650Z,61.78
2023-05-14T01:29:24.613Z,62.13
2023-05-14T01:29:59.201Z,61.75
2023-05-14T01:30:32.260Z,62.42
2023-05-14T01:31:07.902Z,61.70
2023-05-14T01:31:40.884Z,61.75
2023-05-14T01:32:13.535Z,62.28
2023-05-14T01:32:49.084Z,62.65
2023-05-14T01:33:21.809Z,63.05
2023-05-14T01:33:54.254Z,61.88
2023-05-14T01:34:29.439Z,62.70
2023-05-14T01:35:01.299Z,62.70
2023-05-14T01:35:33.310Z,63.72
2023-05-14T01:36:06.297Z,63.10
2023-05-14T01:36:40.164Z,63.58
2023-05-14T01:37:12.484Z,62.40
2023-05-14T01:37:45.402Z,62.50
2023-05-14T01:38:18.911Z,63.78
2023-05-14T01:38:51.182Z,63.28
2023-05-14T01:39:26.035Z,63.15
2023-05-14T01:39:57.700Z,63.35
2023-05-14T01:40:29.856Z,62.60
2023-05-14T01:41:01.798Z,62.17
2023-05-14T01:41:34.706Z,63.08
2023-05-14T01:42:07.319Z,62.50
2023-05-14T01:42:39.921Z,62.90
2023-05-14T01:43:11.920Z,62.53
2023-05-14T01:43:43.941Z,63.75
2023-05-14T01:44:16.020Z,62.58
2023-05-14T01:44:48.659Z,63.33
2023-05-14T01:45:20.607Z,63.38
2023-05-14T01:45:52.420Z,63.30
2023-05-14T01:46:25.276Z,62.97
2023-05-14T01:46:56.983Z,63.60
2023-05-14T01:47:28.600Z,63.65
2023-05-14T01:48:01.516Z,62.95
2023-05-14T01:48:33.771Z,62.05
2023-05-14T01:49:05.430Z,62.70
2023-05-14T01:49:38.200Z,62.38
2023-05-14T01:50:10.550Z,63.92
2023-05-14T01:50:42.208Z,62.58
2023-05-14T01:51:14.729Z,62.35
2023-05-14T01:51:49.065Z,62.50
2023-05-14T01:52:21.263Z,62.65
2023-05-14T01:52:56.269Z,63.15
2023-05-14T01:53:28.863Z,63.30
2023-05-14T01:54:00.686Z,62.67
2023-05-14T01:54:32.342Z,63.03
2023-05-14T01:55:05.144Z,62.63
2023-05-14T01:55:37.723Z,63.15
2023-05-14T01:56:09.373Z,63.47
2023-05-14T01:56:41.848Z,64.18
2023-05-14T01:57:13.487Z,64.10
2023-05-14T01:57:46.147Z,63.53
2023-05-14T01:58:18.139Z,64.47
2023-05-14T01:58:49.786Z,62.92
2023-05-14T01:59:22.433Z,63.15
2023-05-14T01:59:54.051Z,62.78
2023-05-14T02:00:25.925Z,62.67
2023-05-14T02:00:58.791Z,63.17
2023-05-14T02:01:30.671Z,63.42
2023-05-14T02:02:02.462Z,64.10
2023-05-14T02:02:35.188Z,64.20
2023-05-14T02:03:06.921Z,64.28
2023-05-14T02:03:39.254Z,64.15
2023-05-14T02:04:11.982Z,63.53
2023-05-14T02:04:46.664Z,63.22
2023-05-14T02:05:18.726Z,63.08
2023-05-14T02:05:51.335Z,63.97
2023-05-14T02:06:22.949Z,63.13
2023-05-14T02:06:56.037Z,63.63
2023-05-14T02:07:30.517Z,64.60
2023-05-14T02:08:02.194Z,64.22
2023-05-14T02:08:33.835Z,62.67
2023-05-14T02:09:06.453Z,64.57
2023-05-14T02:09:38.497Z,63.83
2023-05-14T02:10:11.354Z,64.93
2023-05-14T02:10:44.024Z,63.88
2023-05-14T02:11:15.815Z,63.88
2023-05-14T02:11:47.710Z,65.25
2023-05-14T02:12:20.364Z,64.55
2023-05-14T02:12:52.015Z,63.90
2023-05-14T02:13:23.612Z,63.23
2023-05-14T02:13:56.195Z,64.60
2023-05-14T02:14:27.939Z,64.93
2023-05-14T02:14:59.596Z,64.77
2023-05-14T02:15:32.775Z,63.95
2023-05-14T02:16:06.164Z,63.72
2023-05-14T02:16:37.809Z,63.28
2023-05-14T02:17:09.507Z,65.28
2023-05-14T02:17:41.291Z,62.72
2023-05-14T02:18:16.148Z,64.53
2023-05-14T02:18:48.020Z,64.30
2023-05-14T02:19:19.738Z,62.60
2023-05-14T02:19:52.717Z,65.00
2023-05-14T02:20:24.603Z,64.03
2023-05-14T02:20:57.437Z,64.25
2023-05-14T02:21:30.034Z,64.40
2023-05-14T02:22:03.189Z,63.67
2023-05-14T02:22:34.828Z,64.25
2023-05-14T02:23:07.404Z,64.93
2023-05-14T02:23:41.902Z,65.47
2023-05-14T02:24:15.022Z,63.70
2023-05-14T02:24:46.740Z,64.88
2023-05-14T02:25:18.462Z,65.13
2023-05-14T02:25:51.841Z,65.80
2023-05-14T02:26:23.607Z,64.38
2023-05-14T02:26:55.585Z,65.45
2023-05-14T02:27:29.141Z,64.88
2023-05-14T02:28:01.257Z,65.70
2023-05-14T02:28:33.204Z,64.82
2023-05-14T02:29:06.143Z,66.45
2023-05-14T02:29:38.148Z,65.47
2023-05-14T02:30:11.406Z,66.25
2023-05-14T02:30:44.927Z,66.68
2023-05-14T02:31:19.315Z,66.78
2023-05-14T02:31:51.346Z,65.20
2023-05-14T02:32:24.539Z,65.03
2023-05-14T02:32:57.239Z,64.70
2023-05-14T02:33:29.297Z,65.30
2023-05-14T02:34:02.850Z,65.20
2023-05-14T02:34:34.783Z,65.60
2023-05-14T02:35:11.872Z,65.72
2023-05-14T02:35:45.167Z,65.05
2023-05-14T02:36:18.692Z,65.97
2023-05-14T02:36:50.677Z,65.70
2023-05-14T02:37:24.980Z,65.40
2023-05-14T02:37:57.042Z,66.93
2023-05-14T02:38:28.995Z,66.90
2023-05-14T02:39:02.910Z,66.65
2023-05-14T02:39:34.799Z,66.15
2023-05-14T02:40:07.971Z,66.07
2023-05-14T02:40:40.786Z,65.73
2023-05-14T02:41:12.657Z,64.97
2023-05-14T02:41:44.562Z,66.85
2023-05-14T02:42:17.540Z,67.80
2023-05-14T02:42:49.476Z,65.47
2023-05-14T02:43:21.371Z,66.93
2023-05-14T02:43:54.391Z,65.45
2023-05-14T02:44:26.488Z,67.10
2023-05-14T02:44:58.405Z,66.50
2023-05-14T02:45:30.403Z,65.72
2023-05-14T02:46:03.691Z,67.15
2023-05-14T02:46:35.666Z,64.47
2023-05-14T02:47:07.718Z,66.40
2023-05-14T02:47:40.730Z,65.50
2023-05-14T02:48:12.942Z,66.72
2023-05-14T02:48:44.992Z,65.90
2023-05-14T02:49:17.898Z,66.57
2023-05-14T02:49:50.004Z,66.32
2023-05-14T02:50:22.092Z,66.07
2023-05-14T02:50:55.120Z,66.25
2023-05-14T02:51:27.371Z,66.85
2023-05-14T02:52:00.911Z,65.75
2023-05-14T02:52:35.229Z,67.43
2023-05-14T02:53:08.096Z,67.07
2023-05-14T02:53:40.978Z,65.55
2023-05-14T02:54:12.889Z,65.32
2023-05-14T02:54:44.833Z,65.25
2023-05-14T02:55:17.792Z,65.45
2023-05-14T02:55:49.743Z,67.10
2023-05-14T02:56:22.329Z,65.28
2023-05-14T02:56:55.267Z,65.55
2023-05-14T02:57:27.208Z,65.32
2023-05-14T02:57:59.167Z,65.35
2023-05-14T02:58:32.160Z,65.35
2023-05-14T02:59:04.524Z,65.47
2023-05-14T02:59:37.001Z,65.65
2023-05-14T03:00:11.886Z,66.72
2023-05-14T03:00:44.217Z,65.85
2023-05-14T03:01:18.687Z,65.47
2023-05-14T03:01:52.518Z,64.93
2023-05-14T03:02:25.430Z,65.47
2023-05-14T03:02:58.084Z,65.53
2023-05-14T03:03:31.841Z,65.95
2023-05-14T03:04:04.702Z,64.35
2023-05-14T03:04:39.724Z,65.15
2023-05-14T03:05:12.940Z,64.90
2023-05-14T03:05:45.231Z,65.07
2023-05-14T03:06:17.330Z,65.03
2023-05-14T03:06:49.472Z,64.43
2023-05-14T03:07:22.409Z,66.25
2023-05-14T03:07:55.831Z,65.68
2023-05-14T03:08:27.955Z,65.00
2023-05-14T03:08:59.874Z,64.50
2023-05-14T03:09:32.543Z,66.15
2023-05-14T03:10:04.539Z,64.88
2023-05-14T03:10:36.417Z,65.10
2023-05-14T03:11:09.047Z,64.90
2023-05-14T03:11:40.869Z,64.15
2023-05-14T03:12:14.337Z,64.57
2023-05-14T03:12:46.843Z,64.47
2023-05-14T03:13:20.761Z,64.70
2023-05-14T03:13:54.987Z,63.75
2023-05-14T03:14:26.603Z,64.70
2023-05-14T03:14:58.277Z,64.28
2023-05-14T03:15:31.367Z,65.80
2023-05-14T03:16:03.010Z,63.78
2023-05-14T03:16:34.677Z,63.28
2023-05-14T03:17:08.179Z,64.07
2023-05-14T03:17:39.950Z,63.58
2023-05-14T03:18:11.900Z,65.32
2023-05-14T03:18:45.160Z,65.28
2023-05-14T03:19:16.984Z,64.10
2023-05-14T03:19:48.892Z,63.75
2023-05-14T03:20:21.824Z,63.42
2023-05-14T03:20:53.766Z,63.20
2023-05-14T03:21:27.283Z,64.35
2023-05-14T03:22:00.135Z,64.20
2023-05-14T03:22:31.799Z,62.95
2023-05-14T03:23:04.973Z,63.47
2023-05-14T03:23:37.996Z,64.72
2023-05-14T03:24:10.025Z,64.10
2023-05-14T03:24:42.797Z,63.42
2023-05-14T03:25:16.388Z,64.43
2023-05-14T03:25:47.986Z,63.92
2023-05-14T03:26:19.948Z,63.13
2023-05-14T03:26:55.966Z,64.28
2023-05-14T03:27:27.649Z,63.92
2023-05-14T03:27:59.473Z,63.85
2023-05-14T03:28:31.389Z,63.47
2023-05-14T03:29:05.600Z,64.75
2023-05-14T03:29:37.353Z,63.55
2023-05-14T03:30:09.617Z,64.07
2023-05-14T03:30:42.540Z,64.18
2023-05-14T03:31:15.167Z,64.68
2023-05-14T03:31:46.892Z,64.32
2023-05-14T03:32:19.669Z,64.40
2023-05-14T03:32:51.943Z,63.42
2023-05-14T03:33:24.130Z,64.07
2023-05-14T03:33:56.905Z,63.58
2023-05-14T03:34:28.695Z,62.97
2023-05-14T03:35:04.061Z,63.72
2023-05-14T03:35:38.174Z,63.97
2023-05-14T03:36:11.060Z,64.05
2023-05-14T03:36:42.980Z,63.58
2023-05-14T03:37:14.596Z,62.88
2023-05-14T03:37:47.287Z,63.55
2023-05-14T03:38:20.371Z,62.92
2023-05-14T03:38:52.013Z,63.47
2023-05-14T03:39:24.705Z,63.47
2023-05-14T03:39:56.357Z,63.55
2023-05-14T03:40:28.014Z,63.70
2023-05-14T03:41:00.717Z,63.95
2023-05-14T03:41:32.508Z,64.45
2023-05-14T03:42:04.531Z,63.55
2023-05-14T03:42:37.258Z,64.80
2023-05-14T03:43:08.953Z,64.20
2023-05-14T03:43:41.408Z,62.70
2023-05-14T03:44:13.227Z,63.47
2023-05-14T03:44:46.173Z,63.72
2023-05-14T03:45:17.865Z,64.13
2023-05-14T03:45:52.545Z,62.85
2023-05-14T03:46:25.549Z,64.25
2023-05-14T03:46:57.227Z,63.60
2023-05-14T03:47:29.044Z,65.18
2023-05-14T03:48:01.791Z,63.17
2023-05-14T03:48:35.129Z,62.65
2023-05-14T03:49:10.186Z,64.35
2023-05-14T03:49:41.994Z,64.15
2023-05-14T03:50:16.868Z,63.55
2023-05-14T03:50:48.725Z,64.20
2023-05-14T03:51:20.376Z,64.07
2023-05-14T03:51:52.992Z,63.75
2023-05-14T03:52:24.825Z,63.65
2023-05-14T03:52:56.575Z,63.67
2023-05-14T03:53:29.624Z,64.03
2023-05-14T03:54:02.791Z,63.45
2023-05-14T03:54:34.678Z,64.40
2023-05-14T03:55:06.970Z,63.30
2023-05-14T03:55:39.733Z,63.60
2023-05-14T03:56:15.352Z,64.20
2023-05-14T03:56:47.613Z,63.28
2023-05-14T03:57:20.227Z,64.30
2023-05-14T03:57:51.905Z,64.65
2023-05-14T03:58:23.555Z,63.53
2023-05-14T03:58:56.218Z,62.55
2023-05-14T03:59:27.808Z,64.18
2023-05-14T03:59:59.468Z,63.38
2023-05-14T04:00:32.371Z,63.85
2023-05-14T04:01:04.335Z,63.80
2023-05-14T04:01:35.920Z,62.83
2023-05-14T04:02:08.628Z,63.30
2023-05-14T04:02:40.372Z,64.00
2023-05-14T04:03:12.212Z,64.50
2023-05-14T04:03:45.170Z,63.05
2023-05-14T04:04:18.193Z,63.63
2023-05-14T04:04:49.957Z,63.25
2023-05-14T04:05:25.633Z,62.75
2023-05-14T04:05:57.293Z,62.85
2023-05-14T04:06:29.041Z,63.65
2023-05-14T04:07:01.700Z,62.38
2023-05-14T04:07:34.048Z,63.58
2023-05-14T04:08:05.917Z,64.22
2023-05-14T04:08:39.884Z,63.78
2023-05-14T04:09:11.950Z,63.85
2023-05-14T04:09:43.593Z,62.95
2023-05-14T04:10:16.571Z,63.90
2023-05-14T04:10:48.212Z,63.13
2023-05-14T04:11:19.977Z,63.92
2023-05-14T04:11:54.510Z,63.33
2023-05-14T04:12:26.770Z,63.50
2023-05-14T04:12:59.020Z,62.92
2023-05-14T04:13:35.930Z,63.42
2023-05-14T04:14:07.724Z,64.75
2023-05-14T04:14:39.491Z,63.60
2023-05-14T04:15:12.844Z,63.08
2023-05-14T04:15:44.539Z,64.10
2023-05-14T04:16:16.338Z,62.92
2023-05-14T04:16:49.100Z,64.00
2023-05-14T04:17:20.899Z,62.38
2023-05-14T04:17:53.593Z,63.47
2023-05-14T04:18:26.428Z,64.97
2023-05-14T04:18:58.293Z,64.22
2023-05-14T04:19:29.975Z,63.40
2023-05-14T04:20:03.180Z,63.88
2023-05-14T04:20:34.872Z,63.33
2023-05-14T04:21:09.638Z,62.72
2023-05-14T04:21:42.293Z,62.97
2023-05-14T04:22:13.965Z,64.47
2023-05-14T04:22:45.752Z,62.50
2023-05-14T04:23:18.374Z,62.97
2023-05-14T04:23:51.601Z,63.10
2023-05-14T04:24:24.220Z,63.63
2023-05-14T04:24:55.842Z,62.10
2023-05-14T04:25:27.512Z,62.28
2023-05-14T04:26:00.232Z,62.38
2023-05-14T04:26:31.852Z,64.25
2023-05-14T04:27:04.163Z,61.78
2023-05-14T04:27:36.823Z,63.13
2023-05-14T04:28:08.512Z,62.47
2023-05-14T04:28:40.515Z,63.05
2023-05-14T04:29:13.095Z,62.50
2023-05-14T04:29:44.754Z,61.95
2023-05-14T04:30:16.566Z,62.67
2023-05-14T04:30:49.418Z,62.53
2023-05-14T04:31:21.239Z,62.17
2023-05-14T04:31:53.449Z,63.40
2023-05-14T04:32:26.550Z,63.13
2023-05-14T04:32:58.509Z,63.33
2023-05-14T04:33:30.650Z,64.18
2023-05-14T04:34:03.622Z,62.63
2023-05-14T04:34:35.548Z,62.85
2023-05-14T04:35:09.220Z,62.85
2023-05-14T04:35:42.182Z,62.85
2023-05-14T04:36:14.730Z,63.03
2023-05-14T04:36:46.628Z,62.67
2023-05-14T04:37:19.569Z,63.67
2023-05-14T04:37:51.540Z,62.55
2023-05-14T04:38:23.632Z,61.47
2023-05-14T04:38:58.025Z,62.45
2023-05-14T04:39:30.059Z,61.65
2023-05-14T04:40:02.125Z,62.67
2023-05-14T04:40:35.108Z,62.35
2023-05-14T04:41:07.286Z,62.70
2023-05-14T04:41:39.324Z,62.63
2023-05-14T04:42:12.326Z,62.97
2023-05-14T04:42:44.181Z,62.60
2023-05-14T04:43:17.536Z,62.08
2023-05-14T04:43:50.811Z,62.35
2023-05-14T04:44:23.789Z,62.60
2023-05-14T04:44:55.815Z,63.15
2023-05-14T04:45:27.725Z,63.60
2023-05-14T04:46:00.751Z,62.85
2023-05-14T04:46:32.956Z,63.00
2023-05-14T04:47:05.785Z,61.90
2023-05-14T04:47:38.673Z,63.10
2023-05-14T04:48:10.818Z,62.65
2023-05-14T04:48:42.872Z,62.67
2023-05-14T04:49:15.851Z,62.35
2023-05-14T04:49:48.031Z,62.22
2023-05-14T04:50:20.077Z,62.45
2023-05-14T04:50:53.260Z,62.28
2023-05-14T04:51:26.329Z,63.17
2023-05-14T04:51:58.478Z,62.42
2023-05-14T04:52:31.576Z,62.92
2023-05-14T04:53:03.445Z,62.72
2023-05-14T04:53:35.435Z,62.37
2023-05-14T04:54:10.109Z,63.00
2023-05-14T04:54:42.064Z,62.47
2023-05-14T04:55:14.433Z,62.90
2023-05-14T04:55:47.401Z,63.20
2023-05-14T04:56:19.407Z,61.80
2023-05-14T04:56:51.336Z,62.33
2023-05-14T04:57:24.354Z,63.13
2023-05-14T04:57:56.474Z,61.95
2023-05-14T04:58:29.214Z,63.20
2023-05-14T04:59:01.108Z,62.97
2023-05-14T04:59:34.298Z,63.15
2023-05-14T05:00:07.865Z,61.85
2023-05-14T05:00:40.859Z,62.60
2023-05-14T05:01:13.993Z,61.50
2023-05-14T05:01:46.105Z,62.90
2023-05-14T05:02:18.086Z,63.22
2023-05-14T05:02:51.253Z,61.83
2023-05-14T05:03:23.230Z,63.63
2023-05-14T05:03:58.208Z,62.35
2023-05-14T05:04:31.145Z,63.38
2023-05-14T05:05:04.186Z,61.72
2023-05-14T05:05:36.243Z,62.22
2023-05-14T05:06:09.299Z,62.65
2023-05-14T05:06:41.188Z,62.58
2023-05-14T05:07:13.259Z,63.00
2023-05-14T05:07:46.187Z,62.42
2023-05-14T05:08:18.094Z,62.15
2023-05-14T05:08:50.064Z,62.00
2023-05-14T05:09:24.313Z,62.90
2023-05-14T05:09:56.237Z,61.83
2023-05-14T05:10:28.166Z,62.35
2023-05-14T05:11:01.053Z,62.15
2023-05-14T05:11:32.950Z,62.15
2023-05-14T05:12:08.010Z,62.50
2023-05-14T05:12:40.925Z,62.63
2023-05-14T05:13:12.816Z,62.80
2023-05-14T05:13:44.745Z,61.47
2023-05-14T05:14:17.811Z,62.45
2023-05-14T05:14:49.685Z,62.50
2023-05-14T05:15:23.701Z,61.90
2023-05-14T05:15:57.223Z,61.67
2023-05-14T05:16:29.342Z,62.10
2023-05-14T05:17:02.279Z,62.65
2023-05-14T05:17:34.637Z,62.13
2023-05-14T05:18:06.957Z,62.33
2023-05-14T05:18:40.088Z,61.25
2023-05-14T05:19:12.869Z,62.63
2023-05-14T05:19:44.933Z,61.65
2023-05-14T05:20:17.269Z,61.35
2023-05-14T05:20:50.236Z,62.13
2023-05-14T05:21:22.194Z,62.08
2023-05-14T05:21:55.087Z,61.92
2023-05-14T05:22:27.196Z,61.75
2023-05-14T05:22:59.501Z,61.47
2023-05-14T05:23:32.455Z,61.17
2023-05-14T05:24:04.892Z,61.83
2023-05-14T05:24:38.300Z,61.63
2023-05-14T05:25:12.056Z,61.25
2023-05-14T05:25:46.773Z,61.90
2023-05-14T05:26:18.751Z,61.53
2023-05-14T05:26:51.923Z,61.28
2023-05-14T05:27:25.033Z,62.00
2023-05-14T05:27:56.934Z,61.55
2023-05-14T05:28:28.829Z,61.45
2023-05-14T05:29:02.009Z,61.13
2023-05-14T05:29:34.999Z,60.70
2023-05-14T05:30:08.439Z,62.00
2023-05-14T05:30:45.149Z,62.03
2023-05-14T05:31:19.665Z,62.27
2023-05-14T05:31:52.262Z,61.67
2023-05-14T05:32:27.448Z,60.85
2023-05-14T05:32:59.552Z,61.67
2023-05-14T05:33:31.610Z,61.53
2023-05-14T05:34:05.126Z,61.55
2023-05-14T05:34:37.175Z,61.60
2023-05-14T05:35:09.946Z,61.63
2023-05-14T05:35:44.526Z,62.47
2023-05-14T05:36:16.569Z,61.13
2023-05-14T05:36:48.481Z,63.17
2023-05-14T05:37:21.402Z,61.30
2023-05-14T05:37:53.380Z,61.90
2023-05-14T05:38:25.380Z,62.03
2023-05-14T05:38:58.367Z,62.17
2023-05-14T05:39:35.155Z,62.40
2023-05-14T05:40:14.079Z,61.58
2023-05-14T05:40:50.030Z,62.28
2023-05-14T05:41:22.310Z,61.78
2023-05-14T05:41:54.495Z,62.05
2023-05-14T05:42:26.526Z,61.95
2023-05-14T05:42:59.452Z,62.33
2023-05-14T05:43:33.513Z,61.50
2023-05-14T05:44:05.744Z,62.47
2023-05-14T05:44:38.757Z,61.50
2023-05-14T05:45:11.278Z,62.40
2023-05-14T05:45:43.295Z,61.42
2023-05-14T05:46:16.362Z,61.90
2023-05-14T05:46:48.373Z,62.40
2023-05-14T05:47:20.521Z,62.47
2023-05-14T05:47:53.560Z,62.15
2023-05-14T05:48:25.496Z,62.40
2023-05-14T05:48:57.456Z,61.97
2023-05-14T05:49:30.368Z,62.05
2023-05-14T05:50:02.284Z,62.45
2023-05-14T05:50:34.220Z,62.05
2023-05-14T05:51:07.456Z,62.63
2023-05-14T05:51:39.357Z,61.90
2023-05-14T05:52:11.401Z,61.95
2023-05-14T05:52:46.610Z,62.63
2023-05-14T05:53:18.993Z,62.15
2023-05-14T05:53:51.145Z,61.55
2023-05-14T05:54:25.453Z,61.53
2023-05-14T05:54:57.337Z,62.47
2023-05-14T05:55:30.643Z,61.97
2023-05-14T05:56:03.679Z,64.35
2023-05-14T05:56:35.664Z,62.65
2023-05-14T05:57:07.690Z,61.95
2023-05-14T05:57:40.650Z,63.10
2023-05-14T05:58:17.176Z,63.85
2023-05-14T05:58:49.326Z,62.15
2023-05-14T05:59:22.300Z,61.97
2023-05-14T05:59:54.550Z,62.78
2023-05-14T06:00:26.858Z,62.42
2023-05-14T06:01:00.340Z,62.45
2023-05-14T06:01:32.333Z,62.97
2023-05-14T06:02:04.756Z,63.42
2023-05-14T06:02:37.789Z,65.75
2023-05-14T06:03:09.884Z,64.32
2023-05-14T06:03:41.922Z,63.60
2023-05-14T06:04:14.890Z,65.07
2023-05-14T06:04:47.328Z,63.92
2023-05-14T06:05:19.547Z,64.25
2023-05-14T06:05:52.989Z,64.45
2023-05-14T06:06:24.977Z,64.57
2023-05-14T06:06:56.941Z,66.63
2023-05-14T06:07:29.814Z,65.90
2023-05-14T06:08:01.929Z,64.18
2023-05-14T06:08:33.812Z,63.95
2023-05-14T06:09:08.836Z,63.40
2023-05-14T06:09:40.719Z,65.60
2023-05-14T06:10:12.669Z,63.55
2023-05-14T06:10:47.651Z,63.72
2023-05-14T06:11:19.800Z,65.57
2023-05-14T06:11:51.741Z,64.82
2023-05-14T06:12:24.657Z,66.50
2023-05-14T06:12:56.622Z,63.75
2023-05-14T06:13:28.557Z,64.47
2023-05-14T06:14:01.425Z,64.72
2023-05-14T06:14:33.576Z,64.95
2023-05-14T06:15:06.603Z,64.88
2023-05-14T06:15:39.503Z,63.40
2023-05-14T06:16:11.547Z,62.38
2023-05-14T06:16:43.649Z,63.42
2023-05-14T06:17:16.548Z,63.75
2023-05-14T06:17:48.501Z,63.63
2023-05-14T06:18:20.692Z,64.03
2023-05-14T06:18:54.502Z,63.67
2023-05-14T06:19:26.533Z,64.22
2023-05-14T06:19:58.466Z,64.30
2023-05-14T06:20:31.380Z,66.07
2023-05-14T06:21:03.356Z,62.85
2023-05-14T06:21:35.524Z,63.92
2023-05-14T06:22:08.433Z,64.60
2023-05-14T06:22:40.440Z,64.22
2023-05-14T06:23:12.433Z,64.15
2023-05-14T06:23:45.530Z,63.30
2023-05-14T06:24:17.471Z,63.40
2023-05-14T06:24:49.387Z,62.72
2023-05-14T06:25:22.333Z,62.85
2023-05-14T06:25:55.640Z,63.67
2023-05-14T06:26:27.522Z,62.85
2023-05-14T06:27:00.396Z,63.97
2023-05-14T06:27:32.456Z,63.53
2023-05-14T06:28:04.648Z,64.47
2023-05-14T06:28:37.515Z,61.97
2023-05-14T06:29:09.385Z,62.25
2023-05-14T06:29:41.288Z,62.35
2023-05-14T06:30:15.429Z,61.17
2023-05-14T06:30:49.943Z,61.80
2023-05-14T06:31:21.912Z,61.95
2023-05-14T06:31:54.901Z,62.13
2023-05-14T06:32:26.883Z,62.78
2023-05-14T06:32:58.845Z,62.25
2023-05-14T06:33:31.804Z,62.72
2023-05-14T06:34:03.763Z,61.88
2023-05-14T06:34:35.651Z,63.13
2023-05-14T06:35:09.593Z,61.47
2023-05-14T06:35:41.615Z,61.72
2023-05-14T06:36:13.492Z,62.35
2023-05-14T06:36:46.434Z,62.63
2023-05-14T06:37:18.421Z,62.88
2023-05-14T06:37:50.316Z,62.92
2023-05-14T06:38:23.206Z,62.75
2023-05-14T06:38:55.270Z,62.17
2023-05-14T06:39:27.191Z,62.00
2023-05-14T06:40:00.191Z,62.15
2023-05-14T06:40:32.290Z,61.60
2023-05-14T06:41:06.588Z,61.10
2023-05-14T06:41:38.428Z,62.28
2023-05-14T06:42:10.402Z,61.55
2023-05-14T06:42:43.333Z,62.50
2023-05-14T06:43:15.366Z,62.65
2023-05-14T06:43:47.261Z,62.45
2023-05-14T06:44:20.828Z,62.20
2023-05-14T06:44:52.731Z,62.90
2023-05-14T06:45:25.628Z,62.05
2023-05-14T06:45:57.498Z,62.75
2023-05-14T06:46:29.478Z,61.80
2023-05-14T06:47:02.628Z,62.15
2023-05-14T06:47:34.655Z,62.53
2023-05-14T06:48:10.119Z,62.25
2023-05-14T06:48:42.195Z,62.60
2023-05-14T06:49:14.307Z,63.03
2023-05-14T06:49:47.265Z,61.70
2023-05-14T06:50:19.364Z,61.60
2023-05-14T06:50:51.294Z,62.45
2023-05-14T06:51:24.166Z,61.83
2023-05-14T06:51:56.091Z,61.45
2023-05-14T06:52:28.058Z,61.38
2023-05-14T06:53:01.021Z,61.88
2023-05-14T06:53:33.035Z,62.85
2023-05-14T06:54:05.034Z,62.00
2023-05-14T06:54:37.997Z,62.40
2023-05-14T06:55:10.585Z,62.08
2023-05-14T06:55:42.562Z,62.30
2023-05-14T06:56:16.814Z,61.75
2023-05-14T06:56:48.737Z,62.03
2023-05-14T06:57:21.103Z,62.10
2023-05-14T06:57:53.945Z,61.70
2023-05-14T06:58:25.833Z,61.45
2023-05-14T06:58:57.724Z,61.67
2023-05-14T06:59:30.605Z,62.08
2023-05-14T07:00:03.731Z,61.30
2023-05-14T07:00:35.976Z,61.00